Juan Alderete

Chefscout - Sportivo Luqueno
19 Mär 2028
Sonntag
Verarbeitung

Persönlichkeit

Anpassungsfähigkeit (10) Ehrgeiz (9) Kontroverse (20) Loyalität (8) Druck (9) Professionalität (10) Fairness (15) Temperament (8)

Profil

Trainerstil Demokratisch
Lizenz Kontinentale Pro
Entschlossenheit 12
Menschenführung 5
Motivation 11
Disziplin 6
Arbeitszufriedenheit
90%
Ermüdung
0%
Rolle Chefscout
Gehalt 45.5K p/W
Vertrag 14.03.2029

Leistung

Verhalten Gut
Trainingseffektivität
39%
Spielerentwicklung
35%
Verletzungsprävention
45%
Taktische Umsetzung
50%

Letzte Ereignisse

Spieler begutachtet jetzt
Nahm an einer Scouting-Besprechung teil jetzt
Spieler begutachtet jetzt
Spieler begutachtet jetzt
Spieler begutachtet jetzt
Spiel beobachtet jetzt
Spieler begutachtet 7T her
Spiel beobachtet 7T her

Aktuell beobachtet

191
Spieler Verein Status Fähigkeit Vertrauen Beobachtet Zuletzt beobachtet Letzte Stimme
Marcelo Allende Mamelodi Sundowns Aktiv 133 / 130 40% 3 18.03.2028 -
Zito Luvumbo Cagliari Aktiv 136 / 130 40% 1 18.03.2028 -
Chris Rigg Sunderland Aktiv 147 / 152 40% 1 18.03.2028 -
Kamaldeen Atiemo Wa All Stars Aktiv 102 / 99 40% 1 18.03.2028 -
Tyreece Campbell Charlton Athletic Aktiv 139 / 119 40% 2 16.03.2028 -
Jesús Ricardo Angulo Atlas Aktiv 145 / 129 40% 2 16.03.2028 -
Abdoul Ouattara Port Vale Aktiv 124 / 129 40% 1 15.03.2028 -
Koki Saito Queens Park Rangers Aktiv 136 / 140 40% 1 15.03.2028 -
Vitaly Janelt Derby County Aktiv 147 / 152 40% 1 14.03.2028 -
Benjamín Rollheiser Santos Aktiv 127 / 141 40% 1 13.03.2028 -
Musa Barrow ES Setif Aktiv 140 / 146 40% 1 13.03.2028 -
Tyler Fletcher Rotherham United Aktiv 103 / 128 40% 2 10.03.2028 -
Armstrong Oko-Flex Levski Aktiv 134 / 116 40% 1 10.03.2028 -
Adam Aznou Everton Aktiv 115 / 144 40% 1 10.03.2028 -
Jayden Addai Bari Aktiv 150 / 139 40% 2 08.03.2028 -
Germán Valera Elche Aktiv 155 / 132 40% 1 08.03.2028 -
William Osula Wrexham Aktiv 125 / 144 40% 2 07.03.2028 -
Pablo Solari Akhmat Grozny Aktiv 147 / 142 40% 1 06.03.2028 -
Carlos Vicente Birmingham Aktiv 144 / 144 40% 1 06.03.2028 -
Nuno Santos SuperSport United Aktiv 133 / 135 40% 3 05.03.2028 -
Jorge Moreno Athletic Bilbao Aktiv 119 / 135 40% 2 04.03.2028 -
Taher Mohamed Al Ahly Aktiv 112 / 113 40% 1 04.03.2028 -
Kiani Inge Groningen Aktiv 109 / 111 40% 1 04.03.2028 -
Jorthy Mokio ADO Den Haag Aktiv 123 / 128 40% 1 03.03.2028 -
Finn Jeltsch VfB Stuttgart Aktiv 127 / 137 40% 3 02.03.2028 -
Josh King Newcastle United Aktiv 137 / 160 40% 1 02.03.2028 -
Francisco González Tijuana Aktiv 122 / 119 40% 3 28.02.2028 -
Dor Turgeman Rubin Aktiv 119 / 124 40% 1 28.02.2028 -
Enrique Clemente Las Palmas Aktiv 125 / 127 40% 1 26.02.2028 -
Shaylon Mirassol Aktiv 121 / 124 40% 1 26.02.2028 -
Amine Boukamir Charleroi Aktiv 92 / 105 40% 1 26.02.2028 -
Andrija Bulatović Chamois Niortais Aktiv 132 / 127 40% 1 25.02.2028 -
Iker Benito Casa Pia Aktiv 146 / 123 40% 1 23.02.2028 -
Carlos Fernández Oviedo Aktiv 132 / 137 40% 1 23.02.2028 -
Kasey McAteer Barnsley Aktiv 143 / 139 40% 2 22.02.2028 -
Ivan Giraldo Valencia Aktiv 129 / 130 40% 1 22.02.2028 -
Esquerdinha Notts County Aktiv 134 / 130 40% 1 22.02.2028 -
Adnan Nainggolan KV Oostende Aktiv 114 / 117 40% 2 19.02.2028 -
Mateu Morey Girona Aktiv 152 / 134 40% 1 19.02.2028 -
Martín Ojeda Orlando City Aktiv 137 / 137 40% 1 18.02.2028 -
Honest Ahanor Atalanta Aktiv 121 / 152 40% 2 17.02.2028 -
Riquelme Thompson-Jones Accrington Stanley Aktiv 101 / 123 40% 1 17.02.2028 -
Trey Nyoni Rotherham United Aktiv 146 / 153 40% 1 16.02.2028 -
Bénie Traoré New York City Aktiv 121 / 123 40% 1 15.02.2028 -
Thulani Manyama SuperSport United Aktiv 106 / 125 40% 1 14.02.2028 -
Salvador Blopá Sporting CP Aktiv 138 / 114 40% 1 14.02.2028 -
Bernardo Lima Porto Aktiv 93 / 112 40% 1 13.02.2028 -
Samuel Edozie Southampton Aktiv 138 / 139 40% 1 12.02.2028 -
Germán Barbas Burgos Aktiv 102 / 108 40% 2 10.02.2028 -
Yury Oyarzo Racing Aktiv 103 / 107 40% 1 10.02.2028 -
Facundo Batista Penarol Aktiv 121 / 119 40% 1 07.02.2028 -
Juan Rodríguez Cerro Largo Aktiv 106 / 108 40% 3 04.02.2028 -
Philippe Nguyen Tours Aktiv 120 / 109 40% 2 04.02.2028 -
Luca Meirelles Kudrivka Aktiv 126 / 136 40% 1 01.02.2028 -
Joshua Ajala Walsall Aktiv 102 / 101 40% 1 01.02.2028 -
Ruben Ramos LA Galaxy Aktiv 111 / 106 40% 2 31.01.2028 -
Julián Bragado Morón Aktiv 73 / 88 40% 1 31.01.2028 -
Luighi Palmeiras Aktiv 117 / 120 40% 2 30.01.2028 -
Mamadou Doumbia Rotherham United Aktiv 134 / 120 40% 1 30.01.2028 -
Noam Obougou Jacquet Le Havre AC Aktiv 127 / 123 40% 3 29.01.2028 -
Siyabonga Mabena Bidvest Wits Aktiv 116 / 119 40% 2 28.01.2028 -
Luka Andrade Montevideo City Torque Aktiv 110 / 112 40% 1 25.01.2028 -
Ousseynou Seck Randers Aktiv 97 / 132 40% 2 24.01.2028 -
Diego Robles Union Espanola Aktiv 76 / 91 40% 3 19.01.2028 -
Yuri Leles Bragantino Aktiv 116 / 118 40% 1 19.01.2028 -
Yastin Cuevas Huachipato Aktiv 87 / 101 40% 1 18.01.2028 -
Lamin Sillah Exeter City Aktiv 102 / 116 40% 1 17.01.2028 -
Ryan Kavuma-McQueen Accrington Stanley Aktiv 117 / 134 40% 1 16.01.2028 -
Anthony da Costa Artigas Aktiv 76 / 94 40% 1 14.01.2028 -
Rafael Moreno Atletico Venezuela Aktiv 119 / 119 40% 1 14.01.2028 -
Luis Yanes Real Cartagena Aktiv 83 / 96 40% 1 13.01.2028 -
Omar Bautista Gerez Central Córdoba SdE Aktiv 87 / 90 40% 1 11.01.2028 -
Nicolás Fernández Maipú Aktiv 110 / 106 40% 2 04.01.2028 -
Lorenzo Monti Temperley Aktiv 119 / 113 40% 1 04.01.2028 -
William Hurtado Envigado Aktiv 118 / 117 40% 1 03.01.2028 -
Pablo Cardona Cortulua Aktiv 108 / 118 40% 1 03.01.2028 -
Gerardo Ortiz Nacional Aktiv 96 / 101 55% 1 27.12.2027 -
Camilo Martinez Cortulua Aktiv 137 / 126 40% 1 13.12.2027 -
Juan Camilo Mosquera Atletico Bucaramanga Aktiv 121 / 108 40% 1 13.12.2027 -
José Recalde Libertad Aktiv 92 / 94 55% 1 01.12.2027 -
Lucas Torres Libertad Aktiv 97 / 95 55% 1 21.06.2027 -
Javier Domínguez Olimpia Aktiv 104 / 123 51% 1 28.12.2026 -
Peter Valjent FK Senica Aktiv 113 / 129 40% 2 29.11.2026 -
Callum O'Hare Sheffield United Aktiv 131 / 131 40% 2 28.11.2026 -
Justo Giani Umraniyespor Aktiv 104 / 113 40% 1 28.11.2026 -
Alejo Tabares All Boys Aktiv 124 / 119 40% 1 26.11.2026 -
Lucas Souto Defensa y Justicia Aktiv 113 / 132 40% 5 25.11.2026 -
Max Johnston Derby County Aktiv 114 / 136 40% 1 25.11.2026 -
Alfie Doughty Millwall Aktiv 146 / 115 40% 1 24.11.2026 -
Toti Wolverhampton Aktiv 149 / 127 40% 1 24.11.2026 -
Eneko Astigarraga Real Sociedad Aktiv 83 / 89 40% 3 23.11.2026 -
Milan van Ewijk Coventry City Aktiv 149 / 122 40% 2 23.11.2026 -
Imanol González Gimnasia y Esgrima Aktiv 108 / 119 40% 1 22.11.2026 -
Ethan Galbraith Swansea City Aktiv 131 / 142 40% 1 21.11.2026 -
Sean Longstaff Leeds United Aktiv 143 / 133 40% 1 20.11.2026 -
Max Bird Birmingham Aktiv 114 / 116 40% 1 20.11.2026 -
Kwadwo Baah Watford Aktiv 117 / 133 40% 1 19.11.2026 -
Teboho Mokoena Mamelodi Sundowns Aktiv 152 / 117 40% 3 16.11.2026 -
Pablo López Chiapas Aktiv 100 / 102 40% 1 16.11.2026 -
Bradley Zwane SuperSport United Aktiv 125 / 100 40% 1 16.11.2026 -
Zian Flemming Ipswich Town Aktiv 129 / 125 40% 1 15.11.2026 -
Brooke Norton-Cuffy Hull City Aktiv 120 / 136 40% 1 13.11.2026 -
Marc Bola Watford Aktiv 121 / 110 40% 1 12.11.2026 -
Welington Southampton Aktiv 128 / 122 40% 1 09.11.2026 -
Pablo García Gijón Aktiv 97 / 92 40% 1 09.11.2026 -
Delvin Alfonzo Deportivo Tachira Aktiv 121 / 108 40% 1 08.11.2026 -
Saba Sazonov Genoa Aktiv 112 / 136 40% 1 07.11.2026 -
Valentín Gómez Betis Aktiv 120 / 138 40% 1 05.11.2026 -
Juan Manuel Sanabria Real Salt Lake Aktiv 123 / 127 40% 3 04.11.2026 -
Juan Camilo Pérez Carabobo Aktiv 126 / 123 40% 4 02.11.2026 Beobachten
Mariano Bracamonte Deportivo Riestra Aktiv 124 / 114 40% 2 02.11.2026 Mehr Infos nötig
Reda Khadra Qarabag Aktiv 143 / 121 40% 1 01.11.2026 -
Marcelo Saracchi Houston Dynamo Aktiv 119 / 124 40% 1 31.10.2026 -
Agustín Medina Lanús Aktiv 102 / 116 40% 2 29.10.2026 -
Lukáš Červ Viktoria Plzen Aktiv 121 / 138 40% 1 29.10.2026 -
Jáder Valencia Deportes Tolima Aktiv 109 / 109 40% 1 27.10.2026 -
Nicolás Romero Minnesota United FC Aktiv 117 / 134 40% 1 25.10.2026 -
Facundo Miño Deportivo Riestra Aktiv 130 / 119 40% 4 22.10.2026 -
Tobías Bovone Deportivo Pereira Aktiv 106 / 110 40% 2 20.10.2026 -
Mateo Ortale Khazar Aktiv 118 / 105 40% 1 19.10.2026 -
Deano Van Rooyen SuperSport United Aktiv 106 / 106 40% 1 18.10.2026 -
Cristopher Rodríguez Estudiantes de Merida Aktiv 101 / 101 40% 2 17.10.2026 -
Conrad Wallem Djurgarden Aktiv 129 / 123 40% 3 16.10.2026 -
Juan Pablo Gallego Fehervar Aktiv 117 / 116 40% 1 16.10.2026 -
Santiago Rodríguez Columbus Crew Aktiv 116 / 126 40% 1 16.10.2026 -
Alhassan Yusuf New England Revolution Aktiv 115 / 125 40% 1 16.10.2026 -
Álex Centelles Levski Aktiv 113 / 115 40% 1 13.10.2026 -
Matías Pellegrini Vélez Aktiv 120 / 125 40% 1 11.10.2026 -
Adu Ares Eibar Aktiv 131 / 119 40% 1 08.10.2026 -
Connor Ronan Colorado Rapids Aktiv 113 / 121 40% 1 06.10.2026 -
Manu Morlanes Mallorca Aktiv 123 / 127 40% 1 06.10.2026 -
Martín Rodríguez Mitre Aktiv 102 / 105 40% 2 04.10.2026 -
Franco Sivetti Gimnasia y Tiro Aktiv 96 / 96 40% 1 04.10.2026 -
Marco Pašalić Orlando City Aktiv 137 / 136 40% 1 04.10.2026 -
Ezequiel Neira Carabobo Aktiv 104 / 122 40% 1 28.09.2026 -
Jesus Ferreira Seattle Sounders Aktiv 127 / 135 40% 1 27.09.2026 -
Talles Magno New York City Aktiv 128 / 139 40% 1 27.09.2026 -
Lautaro Pertusatti River Plate Aktiv 114 / 108 40% 4 26.09.2026 -
André Luiz Sporting Kansas City Aktiv 128 / 132 40% 1 26.09.2026 -
Lukas Engel Real Salt Lake Aktiv 130 / 129 40% 1 23.09.2026 -
Braian Ojeda Orlando City Aktiv 137 / 122 40% 1 21.09.2026 -
Malte Amundsen Columbus Crew Aktiv 117 / 129 40% 1 21.09.2026 -
Gian Nardelli Deportivo La Coruña Aktiv 99 / 101 40% 1 20.09.2026 -
Valentín Fascendini Talleres Aktiv 120 / 130 40% 1 20.09.2026 -
Diego Luna Real Salt Lake Aktiv 138 / 129 40% 1 20.09.2026 -
Francho Serrano Getafe Aktiv 103 / 121 40% 2 18.09.2026 -
Rui Modesto Vancouver Whitecaps Aktiv 115 / 125 40% 1 18.09.2026 -
Javi Moreno Albacete Aktiv 102 / 109 40% 2 16.09.2026 -
Yhormar Hurtado Lechia Aktiv 133 / 131 40% 2 16.09.2026 -
Emir Karić Sporting Kansas City Aktiv 129 / 130 40% 1 14.09.2026 -
Thomas Carrique Andorra Aktiv 99 / 108 40% 2 13.09.2026 -
Alejandro Ramos Melgar Aktiv 118 / 108 40% 2 10.09.2026 -
Pedro Silva Torrejón Gimnasia La Plata Aktiv 111 / 116 40% 2 09.09.2026 -
Alexis Steimbach Gimnasia La Plata Aktiv 127 / 122 40% 1 08.09.2026 -
Jorge Espejo Universidad de Concepcion Aktiv 117 / 104 40% 1 08.09.2026 -
Eduard Löwen San Jose Earthquakes Aktiv 143 / 125 40% 1 05.09.2026 -
Hassani Dotson Seattle Sounders Aktiv 132 / 127 40% 1 05.09.2026 -
Gali Balanta Deportes Tolima Aktiv 81 / 82 40% 1 04.09.2026 -
Fernando Savarino Llaneros Aktiv 95 / 102 40% 1 04.09.2026 -
Catriel Cabellos Sporting Cristal Aktiv 105 / 107 40% 1 03.09.2026 -
Tomás Galván River Plate Aktiv 116 / 118 40% 1 01.09.2026 -
Sergio Sulbarán Zamora Aktiv 93 / 99 40% 2 30.08.2026 -
José Pinto Mineros de Guayana Aktiv 94 / 111 40% 1 30.08.2026 -
Yeferson Rincon Atletico Venezuela Aktiv 87 / 93 40% 1 29.08.2026 -
Francisco Manenti Metropolitanos Aktiv 116 / 95 40% 2 27.08.2026 -
Julián Marchio San Martín SJ Aktiv 106 / 111 40% 1 27.08.2026 -
Nahuel Brunet Godoy Cruz Aktiv 119 / 109 40% 1 26.08.2026 -
Christian Larotonda Caracas Aktiv 108 / 110 40% 1 26.08.2026 -
Luis Ruíz Estudiantes de Caracas Aktiv 102 / 108 40% 1 24.08.2026 -
Jesús Castillo Universitario Aktiv 120 / 116 40% 1 24.08.2026 -
Martín Távara Sporting Cristal Aktiv 104 / 106 40% 2 21.08.2026 -
César Magallan Estudiantes de Merida Aktiv 108 / 111 40% 1 21.08.2026 -
Gabriel Rincon Atletico Venezuela Aktiv 107 / 112 40% 1 20.08.2026 -
Miguel Pernía Carabobo Aktiv 116 / 109 40% 1 20.08.2026 -
Jean Franco Fuentes Metropolitanos Aktiv 107 / 102 40% 2 18.08.2026 -
Rodrigo Gallo Deportivo Riestra Aktiv 112 / 117 40% 1 18.08.2026 -
Kevin González Trujillanos Aktiv 108 / 99 40% 1 17.08.2026 -
Cristhián Rivas Estudiantes de Merida Aktiv 114 / 124 40% 1 16.08.2026 -
Tachi Zaragoza Aktiv 127 / 128 40% 1 16.08.2026 -
Kevin Quevedo Universitario Aktiv 126 / 113 40% 1 16.08.2026 -
Ronaldo Peña Deportivo Lara Aktiv 108 / 102 40% 1 15.08.2026 -
Santiago Luján Huracán Aktiv 121 / 115 40% 1 15.08.2026 -
Jonatan Torres Cerro Porteno Aktiv 117 / 124 40% 1 15.08.2026 -
Cristian Núñez Huracán Aktiv 115 / 106 40% 1 15.08.2026 -
Luis Iberico Sporting Cristal Aktiv 113 / 111 40% 1 12.08.2026 -
Juan Manuel Requena Universitario Aktiv 100 / 119 40% 1 09.08.2026 -
Adalberto Peñaranda Deportivo Tachira Aktiv 123 / 119 40% 1 08.08.2026 -
Piero Quispe Universitario Aktiv 103 / 123 40% 1 04.08.2026 -
Patricio Pizarro Huracán Aktiv 98 / 108 40% 1 04.08.2026 -
Andrés Ferro Metropolitanos Aktiv 108 / 97 40% 1 03.08.2026 -
Joaquim Tigres Aktiv 115 / 118 40% 1 01.08.2026 -